createdAt,value
2023-05-13T00:00:34.496Z,67.32
2023-05-13T00:03:01.208Z,67.35
2023-05-13T00:05:30.124Z,67.46
2023-05-13T00:07:56.588Z,67.43
2023-05-13T00:10:24.596Z,67.86
2023-05-13T00:12:51.472Z,68.54
2023-05-13T00:15:18.151Z,68.93
2023-05-13T00:17:44.703Z,69.28
2023-05-13T00:20:13.502Z,69.39
2023-05-13T00:22:40.068Z,69.71
2023-05-13T00:25:06.756Z,69.62
2023-05-13T00:27:33.257Z,69.08
2023-05-13T00:30:02.485Z,68.94
2023-05-13T00:32:29.044Z,68.96
2023-05-13T00:34:55.717Z,69.30
2023-05-13T00:37:24.506Z,69.26
2023-05-13T00:39:53.392Z,68.90
2023-05-13T00:42:20.101Z,69.40
2023-05-13T00:44:46.678Z,68.89
2023-05-13T00:47:13.294Z,69.04
2023-05-13T00:49:39.798Z,69.06
2023-05-13T00:52:06.407Z,68.49
2023-05-13T00:54:33.265Z,68.52
2023-05-13T00:56:59.900Z,68.39
2023-05-13T00:59:28.667Z,68.83
2023-05-13T01:02:04.308Z,68.78
2023-05-13T01:04:43.770Z,68.79
2023-05-13T01:07:16.104Z,69.13
2023-05-13T01:09:55.213Z,69.11
2023-05-13T01:12:26.725Z,69.36
2023-05-13T01:15:19.357Z,69.93
2023-05-13T01:18:01.677Z,69.48
2023-05-13T01:20:29.695Z,69.49
2023-05-13T01:22:58.139Z,69.79
2023-05-13T01:25:25.894Z,69.98
2023-05-13T01:27:52.987Z,70.27
2023-05-13T01:30:20.202Z,70.41
2023-05-13T01:32:47.578Z,69.75
2023-05-13T01:35:18.222Z,69.84
2023-05-13T01:37:45.159Z,69.64
2023-05-13T01:40:24.233Z,69.86
2023-05-13T01:43:05.618Z,70.08
2023-05-13T01:45:33.290Z,70.34
2023-05-13T01:48:00.129Z,70.33
2023-05-13T01:50:26.766Z,70.09
2023-05-13T01:52:53.449Z,70.29
2023-05-13T01:55:20.037Z,70.95
2023-05-13T01:57:46.611Z,70.93
2023-05-13T02:00:13.324Z,70.84
2023-05-13T02:02:39.935Z,70.83
2023-05-13T02:05:06.636Z,70.84
2023-05-13T02:07:36.656Z,70.66
2023-05-13T02:10:03.250Z,70.76
2023-05-13T02:12:32.492Z,71.30
2023-05-13T02:14:58.959Z,70.87
2023-05-13T02:17:25.657Z,70.64
2023-05-13T02:19:52.296Z,70.50
2023-05-13T02:22:18.746Z,70.35
2023-05-13T02:24:45.340Z,71.29
2023-05-13T02:27:13.065Z,71.42
2023-05-13T02:29:39.684Z,71.19
2023-05-13T02:32:08.057Z,71.03
2023-05-13T02:34:36.780Z,71.28
2023-05-13T02:37:03.605Z,71.00
2023-05-13T02:39:33.117Z,70.95
2023-05-13T02:41:59.923Z,70.91
2023-05-13T02:44:26.451Z,70.89
2023-05-13T02:46:58.855Z,70.77
2023-05-13T02:49:27.850Z,70.83
2023-05-13T02:51:54.305Z,70.91
2023-05-13T02:54:20.825Z,71.54
2023-05-13T02:56:47.393Z,71.21
2023-05-13T02:59:13.903Z,71.57
2023-05-13T03:01:43.209Z,71.61
2023-05-13T03:04:09.823Z,71.32
2023-05-13T03:06:37.655Z,71.69
2023-05-13T03:09:04.207Z,71.61
2023-05-13T03:11:30.741Z,71.82
2023-05-13T03:13:57.232Z,71.81
2023-05-13T03:16:23.769Z,71.86
2023-05-13T03:18:50.340Z,71.90
2023-05-13T03:21:16.903Z,71.98
2023-05-13T03:23:43.390Z,71.91
2023-05-13T03:26:09.829Z,72.17
2023-05-13T03:28:36.320Z,72.24
2023-05-13T03:31:08.051Z,72.70
2023-05-13T03:33:34.609Z,72.51
2023-05-13T03:36:01.073Z,72.39
2023-05-13T03:38:30.281Z,72.43
2023-05-13T03:41:01.932Z,72.84
2023-05-13T03:43:31.282Z,72.94
2023-05-13T03:45:58.775Z,72.73
2023-05-13T03:48:25.383Z,72.45
2023-05-13T03:50:54.296Z,72.20
2023-05-13T03:53:20.806Z,72.17
2023-05-13T03:55:47.462Z,72.36
2023-05-13T03:58:14.958Z,72.13
2023-05-13T04:00:46.903Z,71.92
2023-05-13T04:03:14.013Z,72.09
2023-05-13T04:05:40.581Z,72.06
2023-05-13T04:08:09.142Z,72.26
2023-05-13T04:10:35.681Z,72.34
2023-05-13T04:13:02.222Z,72.09
2023-05-13T04:15:28.914Z,72.07
2023-05-13T04:17:58.096Z,71.98
2023-05-13T04:20:26.816Z,71.80
2023-05-13T04:22:56.202Z,71.86
2023-05-13T04:25:22.903Z,71.68
2023-05-13T04:27:49.513Z,71.85
2023-05-13T04:30:17.354Z,72.12
2023-05-13T04:32:44.277Z,72.46
2023-05-13T04:35:10.882Z,73.28
2023-05-13T04:37:48.286Z,73.79
2023-05-13T04:40:14.884Z,73.51
2023-05-13T04:42:41.431Z,73.56
2023-05-13T04:45:08.260Z,73.00
2023-05-13T04:47:35.486Z,73.95
2023-05-13T04:50:02.253Z,73.84
2023-05-13T04:52:31.780Z,73.14
2023-05-13T04:54:58.523Z,73.31
2023-05-13T04:57:25.227Z,73.99
2023-05-13T04:59:53.707Z,74.10
2023-05-13T05:02:20.494Z,74.19
2023-05-13T05:04:49.408Z,74.94
2023-05-13T05:07:16.119Z,74.72
2023-05-13T05:09:45.358Z,74.51
2023-05-13T05:12:11.970Z,73.62
2023-05-13T05:14:38.580Z,73.37
2023-05-13T05:17:05.227Z,73.52
2023-05-13T05:19:31.823Z,72.93
2023-05-13T05:21:58.576Z,72.50
2023-05-13T05:24:25.105Z,72.26
2023-05-13T05:26:52.655Z,72.08
2023-05-13T05:29:19.297Z,71.77
2023-05-13T05:31:48.481Z,71.29
2023-05-13T05:34:15.104Z,69.94
2023-05-13T05:36:42.198Z,68.69
2023-05-13T05:39:08.808Z,67.52
2023-05-13T05:41:35.461Z,66.86
2023-05-13T05:44:01.986Z,64.08
2023-05-13T05:46:31.660Z,64.82
2023-05-13T05:48:58.216Z,64.45
2023-05-13T05:51:24.709Z,64.23
2023-05-13T05:53:53.770Z,64.03
2023-05-13T05:56:21.298Z,63.72
2023-05-13T05:58:50.818Z,63.46
2023-05-13T06:01:17.349Z,63.09
2023-05-13T06:03:44.056Z,62.69
2023-05-13T06:06:10.606Z,62.66
2023-05-13T06:08:37.126Z,62.25
2023-05-13T06:11:03.732Z,62.35
2023-05-13T06:13:30.306Z,62.30
2023-05-13T06:15:56.935Z,62.29
2023-05-13T06:18:23.755Z,61.90
2023-05-13T06:20:50.294Z,61.33
2023-05-13T06:23:16.944Z,61.10
2023-05-13T06:25:43.739Z,60.71
2023-05-13T06:28:11.315Z,60.56
2023-05-13T06:30:38.722Z,60.13
2023-05-13T06:33:07.459Z,59.87
2023-05-13T06:35:34.121Z,59.91
2023-05-13T06:38:00.600Z,59.16
2023-05-13T06:40:27.338Z,58.63
2023-05-13T06:42:53.947Z,58.23
2023-05-13T06:45:23.492Z,57.92
2023-05-13T06:47:53.523Z,57.49
2023-05-13T06:50:20.553Z,57.34
2023-05-13T06:52:47.410Z,57.01
2023-05-13T06:55:13.953Z,56.69
2023-05-13T06:57:43.290Z,56.31
2023-05-13T07:00:10.288Z,55.83
2023-05-13T07:02:36.895Z,55.92
2023-05-13T07:05:03.493Z,54.73
2023-05-13T07:07:30.035Z,54.41
2023-05-13T07:09:56.635Z,53.96
2023-05-13T07:12:23.233Z,53.08
2023-05-13T07:14:49.780Z,52.10
2023-05-13T07:17:16.948Z,51.43
2023-05-13T07:19:43.627Z,51.01
2023-05-13T07:22:10.232Z,51.20
2023-05-13T07:24:36.778Z,50.78
2023-05-13T07:27:03.893Z,50.90
2023-05-13T07:29:30.873Z,50.58
2023-05-13T07:31:57.313Z,50.62
2023-05-13T07:34:24.021Z,49.87
2023-05-13T07:36:50.496Z,50.06
2023-05-13T07:39:17.041Z,50.56
2023-05-13T07:41:43.522Z,50.18
2023-05-13T07:44:13.104Z,50.38
2023-05-13T07:46:39.747Z,50.23
2023-05-13T07:49:08.737Z,50.03
2023-05-13T07:51:35.840Z,49.52
2023-05-13T07:54:02.389Z,48.88
2023-05-13T07:56:28.870Z,47.99
2023-05-13T07:58:55.931Z,48.70
2023-05-13T08:01:22.546Z,48.50
2023-05-13T08:03:49.090Z,48.13
2023-05-13T08:06:15.810Z,47.61
2023-05-13T08:08:44.709Z,47.40
2023-05-13T08:11:11.581Z,46.01
2023-05-13T08:13:38.543Z,46.04
2023-05-13T08:16:07.235Z,45.52
2023-05-13T08:18:33.911Z,44.80
2023-05-13T08:21:00.552Z,44.41
2023-05-13T08:23:40.429Z,44.39
2023-05-13T08:26:10.337Z,44.71
2023-05-13T08:28:39.683Z,44.26
2023-05-13T08:31:06.402Z,43.87
2023-05-13T08:33:33.117Z,44.21
2023-05-13T08:36:01.198Z,43.67
2023-05-13T08:38:27.984Z,43.33
2023-05-13T08:40:55.281Z,43.36
2023-05-13T08:43:23.898Z,42.71
2023-05-13T08:45:51.794Z,42.37
2023-05-13T08:48:19.885Z,41.56
2023-05-13T08:50:47.169Z,41.34
2023-05-13T08:53:16.641Z,40.36
2023-05-13T08:55:45.036Z,40.24
2023-05-13T08:58:12.286Z,40.44
2023-05-13T09:00:38.841Z,40.16
2023-05-13T09:03:05.543Z,39.50
2023-05-13T09:05:34.181Z,39.61
2023-05-13T09:08:06.818Z,39.81
2023-05-13T09:10:33.324Z,40.38
2023-05-13T09:13:01.794Z,40.91
2023-05-13T09:15:28.840Z,41.15
2023-05-13T09:18:18.568Z,40.86
2023-05-13T09:20:45.598Z,40.48
2023-05-13T09:23:13.160Z,40.50
2023-05-13T09:25:43.037Z,40.50
2023-05-13T09:28:14.013Z,40.06
2023-05-13T09:30:46.853Z,39.89
2023-05-13T09:33:19.898Z,39.58
2023-05-13T09:35:50.746Z,39.58
2023-05-13T09:38:17.372Z,40.38
2023-05-13T09:41:22.095Z,41.15
2023-05-13T09:43:48.694Z,40.78
2023-05-13T09:46:15.749Z,41.08
2023-05-13T09:48:43.335Z,40.39
2023-05-13T09:51:09.842Z,40.24
2023-05-13T09:56:58.202Z,40.38
2023-05-13T09:59:24.819Z,40.89
2023-05-13T10:01:51.511Z,41.10
2023-05-13T10:04:18.209Z,41.37
2023-05-13T10:06:45.520Z,41.48
2023-05-13T10:09:12.258Z,41.49
2023-05-13T10:11:39.484Z,41.52
2023-05-13T10:14:06.326Z,41.64
2023-05-13T10:16:33.476Z,41.94
2023-05-13T10:19:00.779Z,42.39
2023-05-13T10:21:27.457Z,42.17
2023-05-13T10:23:54.477Z,42.79
2023-05-13T10:26:21.928Z,42.90
2023-05-13T10:28:51.561Z,43.39
2023-05-13T10:31:18.051Z,43.70
2023-05-13T10:33:45.288Z,45.08
2023-05-13T10:36:36.311Z,44.85
2023-05-13T10:39:18.470Z,45.31
2023-05-13T10:41:47.732Z,45.39
2023-05-13T10:44:14.241Z,45.24
2023-05-13T10:46:43.023Z,45.69
2023-05-13T10:49:14.247Z,45.47
2023-05-13T10:51:44.963Z,46.88
2023-05-13T10:54:24.433Z,48.80
2023-05-13T10:56:57.742Z,49.23
2023-05-13T10:59:48.880Z,49.28
2023-05-13T11:02:22.683Z,51.24
2023-05-13T11:05:00.047Z,51.49
2023-05-13T11:07:29.142Z,50.05
2023-05-13T11:09:55.684Z,47.84
2023-05-13T11:12:22.182Z,47.30
2023-05-13T11:14:48.887Z,47.07
2023-05-13T11:17:18.863Z,45.64
2023-05-13T11:19:48.848Z,45.14
2023-05-13T11:22:18.397Z,42.94
2023-05-13T11:24:45.695Z,42.26
2023-05-13T11:27:19.528Z,41.81
2023-05-13T11:29:55.250Z,42.04
2023-05-13T11:32:40.194Z,42.39
2023-05-13T11:35:06.906Z,42.23
2023-05-13T11:37:33.524Z,42.18
2023-05-13T11:40:00.739Z,43.00
2023-05-13T11:42:27.338Z,42.34
2023-05-13T11:44:53.878Z,41.64
2023-05-13T11:47:26.138Z,41.84
2023-05-13T11:49:52.827Z,41.01
2023-05-13T11:52:19.805Z,40.73
2023-05-13T11:54:48.980Z,39.87
2023-05-13T11:57:19.428Z,40.08
2023-05-13T11:59:51.828Z,39.41
2023-05-13T12:02:26.235Z,39.78
2023-05-13T12:04:53.457Z,39.87
2023-05-13T12:07:23.727Z,39.97
2023-05-13T12:09:50.638Z,41.21
2023-05-13T12:12:17.985Z,41.12
2023-05-13T12:14:46.225Z,40.72
2023-05-13T12:17:13.824Z,40.86
2023-05-13T12:19:40.924Z,41.54
2023-05-13T12:22:08.115Z,42.14
2023-05-13T12:24:34.696Z,41.96
2023-05-13T12:27:04.742Z,41.31
2023-05-13T12:29:43.701Z,41.99
2023-05-13T12:32:11.944Z,41.78
2023-05-13T12:34:39.113Z,41.33
2023-05-13T12:37:13.049Z,41.20
2023-05-13T12:39:43.649Z,41.30
2023-05-13T12:42:16.910Z,41.70
2023-05-13T12:44:46.783Z,41.86
2023-05-13T12:47:15.612Z,41.35
2023-05-13T12:49:52.192Z,40.73
2023-05-13T12:52:18.982Z,40.55
2023-05-13T12:54:45.564Z,40.40
2023-05-13T12:57:12.074Z,40.22
2023-05-13T12:59:39.196Z,40.30
2023-05-13T13:02:05.770Z,39.98
2023-05-13T13:04:32.238Z,39.87
2023-05-13T13:06:58.681Z,38.25
2023-05-13T13:09:25.162Z,36.89
2023-05-13T13:11:52.557Z,36.73
2023-05-13T13:14:19.059Z,36.82
2023-05-13T13:16:46.866Z,37.02
2023-05-13T13:19:15.531Z,37.55
2023-05-13T13:21:42.274Z,37.54
2023-05-13T13:24:08.944Z,37.48
2023-05-13T13:26:35.550Z,37.33
2023-05-13T13:29:02.158Z,37.78
2023-05-13T13:31:28.910Z,37.00
2023-05-13T13:33:55.869Z,35.50
2023-05-13T13:36:22.961Z,34.53
2023-05-13T13:41:34.949Z,32.30
2023-05-13T13:47:24.790Z,31.27
2023-05-13T13:49:51.825Z,33.45
2023-05-13T13:52:18.473Z,34.68
2023-05-13T13:54:44.979Z,34.82
2023-05-13T13:57:11.518Z,33.76
2023-05-13T13:59:38.193Z,33.78
2023-05-13T14:02:05.245Z,34.03
2023-05-13T14:04:34.386Z,34.47
2023-05-13T14:07:02.935Z,34.20
2023-05-13T14:09:29.611Z,33.47
2023-05-13T14:11:56.594Z,33.96
2023-05-13T14:14:24.859Z,33.91
2023-05-13T14:16:52.020Z,33.98
2023-05-13T14:19:19.189Z,33.18
2023-05-13T14:21:46.568Z,32.69
2023-05-13T14:24:13.274Z,33.26
2023-05-13T14:26:40.058Z,32.95
2023-05-13T14:29:06.619Z,33.48
2023-05-13T14:31:33.205Z,33.43
2023-05-13T14:33:59.848Z,33.56
2023-05-13T14:36:26.901Z,33.95
2023-05-13T14:38:54.094Z,33.73
2023-05-13T14:41:21.674Z,33.47
2023-05-13T14:43:48.484Z,33.56
2023-05-13T14:46:16.381Z,33.82
2023-05-13T14:48:43.188Z,33.21
2023-05-13T14:51:11.204Z,32.72
2023-05-13T14:53:38.286Z,33.11
2023-05-13T14:56:06.108Z,32.15
2023-05-13T14:58:32.793Z,31.27
2023-05-13T15:00:59.579Z,32.51
2023-05-13T15:03:26.243Z,32.45
2023-05-13T15:05:54.372Z,32.94
2023-05-13T15:08:21.062Z,32.06
2023-05-13T15:10:47.610Z,32.00
2023-05-13T15:13:14.074Z,31.72
2023-05-13T15:15:40.545Z,29.22
2023-05-13T15:18:07.335Z,29.74
2023-05-13T15:20:33.930Z,30.73
2023-05-13T15:23:00.516Z,31.66
2023-05-13T15:25:26.957Z,32.17
2023-05-13T15:27:54.101Z,31.73
2023-05-13T15:30:20.857Z,31.63
2023-05-13T15:32:47.545Z,31.54
2023-05-13T15:35:15.684Z,31.85
2023-05-13T15:37:42.786Z,32.19
2023-05-13T15:40:09.481Z,31.32
2023-05-13T15:42:36.154Z,31.63
2023-05-13T15:45:02.665Z,31.49
2023-05-13T15:47:29.304Z,32.27
2023-05-13T15:49:55.847Z,32.53
2023-05-13T15:52:22.357Z,32.51
2023-05-13T15:54:48.887Z,33.17
2023-05-13T15:57:15.609Z,33.89
2023-05-13T15:59:45.417Z,34.27
2023-05-13T16:02:12.043Z,35.67
2023-05-13T16:04:38.649Z,35.98
2023-05-13T16:07:10.826Z,37.56
2023-05-13T16:09:40.619Z,36.38
2023-05-13T16:12:07.246Z,33.07
2023-05-13T16:14:33.935Z,34.85
2023-05-13T16:17:00.820Z,36.79
2023-05-13T16:19:27.465Z,38.00
2023-05-13T16:21:53.956Z,38.54
2023-05-13T16:24:20.480Z,36.52
2023-05-13T16:26:47.211Z,31.71
2023-05-13T16:29:14.078Z,29.67
2023-05-13T16:31:40.720Z,29.44
2023-05-13T16:34:07.379Z,29.30
2023-05-13T16:36:33.963Z,29.34
2023-05-13T16:39:00.652Z,29.58
2023-05-13T16:41:27.265Z,30.26
2023-05-13T16:43:53.857Z,33.13
2023-05-13T16:46:20.417Z,32.42
2023-05-13T16:48:47.096Z,30.95
2023-05-13T16:51:13.773Z,30.54
2023-05-13T16:53:40.461Z,33.73
2023-05-13T16:56:06.997Z,36.78
2023-05-13T16:58:33.522Z,38.80
2023-05-13T17:01:00.061Z,39.45
2023-05-13T17:03:26.830Z,40.04
2023-05-13T17:05:53.608Z,40.54
2023-05-13T17:08:21.426Z,41.79
2023-05-13T17:10:47.856Z,42.38
2023-05-13T17:13:16.749Z,43.50
2023-05-13T17:15:43.360Z,44.38
2023-05-13T17:18:09.934Z,45.50
2023-05-13T17:20:36.471Z,46.23
2023-05-13T17:23:02.962Z,46.45
2023-05-13T17:25:29.462Z,47.21
2023-05-13T17:27:56.001Z,49.01
2023-05-13T17:30:23.166Z,48.47
2023-05-13T17:32:50.019Z,48.13
2023-05-13T17:35:16.798Z,48.52
2023-05-13T17:37:43.478Z,49.62
2023-05-13T17:40:10.418Z,49.58
2023-05-13T17:42:37.005Z,49.94
2023-05-13T17:45:04.033Z,50.42
2023-05-13T17:47:31.138Z,49.71
2023-05-13T17:49:57.864Z,49.91
2023-05-13T17:52:24.426Z,50.36
2023-05-13T17:54:51.096Z,50.58
2023-05-13T17:57:17.788Z,50.51
2023-05-13T17:59:44.525Z,50.69
2023-05-13T18:02:11.241Z,50.67
2023-05-13T18:04:38.034Z,51.30
2023-05-13T18:07:04.677Z,52.01
2023-05-13T18:09:31.377Z,51.79
2023-05-13T18:11:58.077Z,52.59
2023-05-13T18:14:24.681Z,52.70
2023-05-13T18:16:51.175Z,53.62
2023-05-13T18:19:17.822Z,54.46
2023-05-13T18:21:45.619Z,54.83
2023-05-13T18:24:12.103Z,55.28
2023-05-13T18:26:41.960Z,55.23
2023-05-13T18:29:08.594Z,54.93
2023-05-13T18:31:35.253Z,54.80
2023-05-13T18:34:02.631Z,55.54
2023-05-13T18:36:29.465Z,56.29
2023-05-13T18:38:56.129Z,56.47
2023-05-13T18:41:22.739Z,56.96
2023-05-13T18:43:49.284Z,57.20
2023-05-13T18:46:16.103Z,56.90
2023-05-13T18:48:42.740Z,56.75
2023-05-13T18:51:10.013Z,57.15
2023-05-13T18:53:36.566Z,57.83
2023-05-13T18:56:03.119Z,59.12
2023-05-13T18:58:29.602Z,59.50
2023-05-13T19:00:56.159Z,59.37
2023-05-13T19:03:22.717Z,59.58
2023-05-13T19:05:49.350Z,60.37
2023-05-13T19:08:16.415Z,60.02
2023-05-13T19:10:42.889Z,59.76
2023-05-13T19:13:09.666Z,60.29
2023-05-13T19:15:36.214Z,60.28
2023-05-13T19:18:02.991Z,60.77
2023-05-13T19:20:30.980Z,60.67
2023-05-13T19:22:57.466Z,60.73
2023-05-13T19:25:24.123Z,60.78
2023-05-13T19:27:50.827Z,61.56
2023-05-13T19:30:17.309Z,62.51
2023-05-13T19:32:43.945Z,63.32
2023-05-13T19:35:11.492Z,63.63
2023-05-13T19:37:38.143Z,64.27
2023-05-13T19:40:04.926Z,63.77
2023-05-13T19:42:31.498Z,64.25
2023-05-13T19:44:58.122Z,64.15
2023-05-13T19:47:26.906Z,64.46
2023-05-13T19:49:53.574Z,64.38
2023-05-13T19:52:20.071Z,64.91
2023-05-13T19:54:46.569Z,65.21
2023-05-13T19:57:13.109Z,66.33
2023-05-13T19:59:41.755Z,66.77
2023-05-13T20:02:08.371Z,66.84
2023-05-13T20:04:34.905Z,66.82
2023-05-13T20:07:01.336Z,66.99
2023-05-13T20:09:27.765Z,66.47
2023-05-13T20:11:54.263Z,66.58
2023-05-13T20:14:23.223Z,66.39
2023-05-13T20:16:49.876Z,66.74
2023-05-13T20:19:16.515Z,68.19
2023-05-13T20:21:43.480Z,67.79
2023-05-13T20:24:10.121Z,67.69
2023-05-13T20:26:36.735Z,67.16
2023-05-13T20:29:03.835Z,66.93
2023-05-13T20:31:30.375Z,67.47
2023-05-13T20:33:57.562Z,66.94
2023-05-13T20:36:24.014Z,67.08
2023-05-13T20:38:50.572Z,67.06
2023-05-13T20:41:17.150Z,66.71
2023-05-13T20:43:43.628Z,67.16
2023-05-13T20:46:14.775Z,68.31
2023-05-13T20:48:41.277Z,68.37
2023-05-13T20:51:07.903Z,67.88
2023-05-13T20:53:35.137Z,67.92
2023-05-13T20:56:02.377Z,68.49
2023-05-13T20:58:28.825Z,68.62
2023-05-13T21:00:55.780Z,69.20
2023-05-13T21:03:22.638Z,69.07
2023-05-13T21:05:49.219Z,70.29
2023-05-13T21:08:16.222Z,70.33
2023-05-13T21:10:42.732Z,70.50
2023-05-13T21:13:09.257Z,69.94
2023-05-13T21:15:35.693Z,69.56
2023-05-13T21:18:02.294Z,69.64
2023-05-13T21:20:28.762Z,69.48
2023-05-13T21:22:55.233Z,69.74
2023-05-13T21:25:21.695Z,70.28
2023-05-13T21:27:48.589Z,71.16
2023-05-13T21:30:15.159Z,71.43
2023-05-13T21:32:41.698Z,71.82
2023-05-13T21:35:08.316Z,72.45
2023-05-13T21:37:34.785Z,72.66
2023-05-13T21:40:01.338Z,72.96
2023-05-13T21:42:27.874Z,73.46
2023-05-13T21:44:54.490Z,73.62
2023-05-13T21:47:22.533Z,73.43
2023-05-13T21:49:49.046Z,74.09
2023-05-13T21:52:15.775Z,73.89
2023-05-13T21:54:42.239Z,74.23
2023-05-13T21:57:09.128Z,74.41
2023-05-13T21:59:35.642Z,74.79
2023-05-13T22:02:02.207Z,74.79
2023-05-13T22:04:28.653Z,74.58
2023-05-13T22:06:55.181Z,74.70
2023-05-13T22:09:21.720Z,74.84
2023-05-13T22:11:51.440Z,74.96
2023-05-13T22:14:17.985Z,74.61
2023-05-13T22:16:49.829Z,74.68
2023-05-13T22:19:21.294Z,74.79
2023-05-13T22:21:47.804Z,74.62
2023-05-13T22:24:14.578Z,74.58
2023-05-13T22:26:43.697Z,75.31
2023-05-13T22:29:10.373Z,75.16
2023-05-13T22:31:36.959Z,75.90
2023-05-13T22:34:03.476Z,75.75
2023-05-13T22:36:29.975Z,75.75
2023-05-13T22:38:56.472Z,74.49
2023-05-13T22:41:23.894Z,74.24
2023-05-13T22:43:50.486Z,75.14
2023-05-13T22:46:17.012Z,75.03
2023-05-13T22:48:43.586Z,74.79
2023-05-13T22:51:10.127Z,75.53
2023-05-13T22:53:36.590Z,75.44
2023-05-13T22:56:03.152Z,75.60
2023-05-13T22:58:29.623Z,75.70
2023-05-13T23:00:56.136Z,75.80
2023-05-13T23:03:22.641Z,75.41
2023-05-13T23:05:49.167Z,74.37
2023-05-13T23:08:15.773Z,74.00
2023-05-13T23:10:42.291Z,74.63
2023-05-13T23:13:08.777Z,75.47
2023-05-13T23:15:36.582Z,76.51
2023-05-13T23:18:03.112Z,76.02
2023-05-13T23:20:29.683Z,75.42
2023-05-13T23:22:56.333Z,76.25
2023-05-13T23:25:22.806Z,76.44
2023-05-13T23:27:50.658Z,76.39
2023-05-13T23:30:17.468Z,76.37
2023-05-13T23:32:44.019Z,76.46
2023-05-13T23:35:10.708Z,75.72
2023-05-13T23:37:37.246Z,76.25
2023-05-13T23:40:03.991Z,75.78
2023-05-13T23:42:31.180Z,75.77
2023-05-13T23:44:57.697Z,76.33
2023-05-13T23:47:24.219Z,76.69
2023-05-13T23:49:50.794Z,76.79
2023-05-13T23:52:17.286Z,77.10
2023-05-13T23:54:43.827Z,77.16
2023-05-13T23:57:11.557Z,77.48
2023-05-13T23:59:38.100Z,76.66
